This is the latest recevied weather packets stored in our database for station/object AC5CM. If no packets are shown the sender has not sent any weather packets the latest 10 day(s).
| Time | Temp. | Humidity | Pressure | Rain* | Wind** | Luminosity | Snow |
|---|---|---|---|---|---|---|---|
| 1778105700 | 30° C | 76% | 1008.9 hPa | 0 mm | - | - | - |
| 1778105398 | 30° C | 75% | 1008.8 hPa | 0 mm | - | - | - |
| 1778105093 | 30° C | 75% | 1008.8 hPa | 0 mm | - | - | - |
| 1778104790 | 30° C | 75% | 1009 hPa | 0 mm | - | - | - |
| 1778104486 | 30° C | 76% | 1008.9 hPa | 0 mm | - | - | - |
| 1778104187 | 30° C | 75% | 1009 hPa | 0 mm | - | - | - |
| 1778103884 | 30.56° C | 75% | 1009 hPa | 0 mm | - | - | - |
| 1778103582 | 30.56° C | 73% | 1009 hPa | 0 mm | - | - | - |
| 1778103279 | 31.11° C | 72% | 1009 hPa | 0 mm | - | - | - |
| 1778102976 | 30.56° C | 74% | 1009.2 hPa | 0 mm | - | - | - |
| 1778102672 | 30.56° C | 75% | 1009.3 hPa | 0 mm | - | - | - |
| 1778102367 | 30.56° C | 73% | 1009.2 hPa | 0 mm | - | - | - |
| 1778102064 | 31.67° C | 71% | 1009.3 hPa | 0 mm | - | - | - |
| 1778101761 | 31.11° C | 73% | 1009.2 hPa | 0 mm | - | - | - |
| 1778101457 | 31.11° C | 73% | 1009.2 hPa | 0 mm | - | - | - |
| 1778101155 | 30.56° C | 73% | 1009.1 hPa | 0 mm | - | - | - |
| 1778100850 | 30.56° C | 75% | 1009.1 hPa | 0 mm | - | - | - |
| 1778100547 | 29.44° C | 76% | 1009.3 hPa | 0 mm | - | - | - |
| 1778100245 | 29.44° C | 78% | 1009.4 hPa | 0 mm | - | - | - |
| 1778099942 | 29.44° C | 78% | 1009.5 hPa | 0 mm | - | - | - |
| 1778099639 | 29.44° C | 77% | 1009.4 hPa | 0 mm | - | - | - |
| 1778099336 | 30° C | 75% | 1009.5 hPa | 0 mm | - | - | - |
| 1778099033 | 30° C | 76% | 1009.6 hPa | 0 mm | - | - | - |
| 1778098730 | 30° C | 76% | 1009.7 hPa | 0 mm | - | - | - |
| 1778098427 | 30.56° C | 73% | 1009.7 hPa | 0 mm | - | - | - |
* Rain latest hour (hover to see other rain measurements)
** Current wind speed in m/s (hover to see current wind gust speed)